createdAt,value
2019-04-20T00:00:16.614Z,0
2019-04-20T00:01:11.452Z,0
2019-04-20T00:02:24.003Z,0
2019-04-20T00:03:23.551Z,0
2019-04-20T00:04:35.356Z,0
2019-04-20T00:05:05.218Z,0
2019-04-20T00:06:06.928Z,0
2019-04-20T00:07:29.896Z,0
2019-04-20T00:08:29.366Z,0
2019-04-20T00:09:31.672Z,0
2019-04-20T00:10:24.675Z,0
2019-04-20T00:11:40.818Z,0
2019-04-20T00:12:53.036Z,0
2019-04-20T00:14:10.865Z,0
2019-04-20T00:14:54.839Z,0
2019-04-20T00:15:32.991Z,0
2019-04-20T00:16:33.696Z,0
2019-04-20T00:18:58.930Z,0
2019-04-20T00:19:57.815Z,0
2019-04-20T00:20:43.724Z,0
2019-04-20T00:21:34.354Z,0
2019-04-20T00:22:55.364Z,0
2019-04-20T00:23:54.669Z,0
2019-04-20T00:24:43.893Z,0
2019-04-20T00:26:27.256Z,0
2019-04-20T00:28:44.095Z,0
2019-04-20T00:30:52.814Z,0
2019-04-20T00:32:37.300Z,0
2019-04-20T00:34:03.644Z,0
2019-04-20T00:34:48.591Z,0
2019-04-20T00:35:29.865Z,0
2019-04-20T00:36:31.282Z,0
2019-04-20T00:37:30.178Z,0
2019-04-20T00:38:56.833Z,0
2019-04-20T00:39:44.407Z,0
2019-04-20T00:40:28.805Z,0
2019-04-20T00:41:48.840Z,0
2019-04-20T00:43:45.579Z,0
2019-04-20T00:44:56.152Z,0
2019-04-20T00:46:01.003Z,0
2019-04-20T00:47:19.833Z,0
2019-04-20T00:48:37.255Z,0
2019-04-20T00:52:29.756Z,0
2019-04-20T00:53:43.112Z,0
2019-04-20T00:54:09.413Z,0
2019-04-20T00:55:18.997Z,0
2019-04-20T00:56:03.307Z,0
2019-04-20T00:57:47.378Z,0
2019-04-20T00:59:07.943Z,0
2019-04-20T01:01:06.562Z,0
2019-04-20T01:03:09.417Z,0
2019-04-20T01:05:10.546Z,0
2019-04-20T01:07:01.037Z,0
2019-04-20T01:08:00.489Z,0
2019-04-20T01:08:31.999Z,0
2019-04-20T01:10:51.274Z,0
2019-04-20T01:11:50.069Z,0
2019-04-20T01:13:01.051Z,0
2019-04-20T01:13:49.349Z,0
2019-04-20T01:15:06.203Z,0
2019-04-20T01:16:18.389Z,0
2019-04-20T01:17:14.186Z,0
2019-04-20T01:18:03.478Z,0
2019-04-20T01:18:52.126Z,0
2019-04-20T01:19:48.788Z,0
2019-04-20T01:20:49.189Z,0
2019-04-20T01:22:18.346Z,0
2019-04-20T01:23:17.163Z,0
2019-04-20T01:24:08.736Z,0
2019-04-20T01:25:04.813Z,0
2019-04-20T01:27:06.938Z,0
2019-04-20T01:29:11.959Z,0
2019-04-20T01:30:17.031Z,0
2019-04-20T01:31:29.191Z,0
2019-04-20T01:32:51.393Z,0
2019-04-20T01:36:01.763Z,0
2019-04-20T01:37:52.667Z,0
2019-04-20T01:39:23.600Z,0
2019-04-20T01:40:07.488Z,0
2019-04-20T01:40:46.750Z,0
2019-04-20T01:42:00.641Z,0
2019-04-20T01:42:46.921Z,0
2019-04-20T01:43:46.178Z,0
2019-04-20T01:44:58.933Z,0
2019-04-20T01:46:09.059Z,0
2019-04-20T01:47:06.318Z,0
2019-04-20T01:48:03.345Z,0
2019-04-20T01:48:50.670Z,0
2019-04-20T01:50:07.508Z,0
2019-04-20T01:51:25.413Z,0
2019-04-20T01:52:28.529Z,0
2019-04-20T01:54:11.571Z,0
2019-04-20T01:56:07.017Z,0
2019-04-20T01:57:22.545Z,0
2019-04-20T01:59:15.657Z,0
2019-04-20T02:00:25.192Z,0
2019-04-20T02:00:59.469Z,0
2019-04-20T02:02:05.054Z,0
2019-04-20T02:03:08.547Z,0
2019-04-20T02:04:01.690Z,0
2019-04-20T02:05:08.645Z,0
2019-04-20T02:06:18.157Z,0
2019-04-20T02:07:06.744Z,0
2019-04-20T02:08:21.349Z,0
2019-04-20T02:08:50.791Z,0
2019-04-20T02:10:13.077Z,0
2019-04-20T02:11:09.797Z,0
2019-04-20T02:12:04.715Z,0
2019-04-20T02:13:04.670Z,0
2019-04-20T02:14:10.027Z,0
2019-04-20T02:15:10.256Z,0
2019-04-20T02:16:22.467Z,0
2019-04-20T02:17:31.791Z,0
2019-04-20T02:18:58.411Z,0
2019-04-20T02:20:54.093Z,0
2019-04-20T02:22:51.434Z,0
2019-04-20T02:23:59.274Z,0
2019-04-20T02:24:23.708Z,0
2019-04-20T02:25:20.603Z,0
2019-04-20T02:26:23.875Z,0
2019-04-20T02:29:38.823Z,0
2019-04-20T02:32:35.739Z,0
2019-04-20T02:35:52.591Z,0
2019-04-20T02:40:15.195Z,0
2019-04-20T02:44:58.494Z,0
2019-04-20T02:47:45.296Z,0
2019-04-20T02:51:12.300Z,0
2019-04-20T02:57:09.001Z,0
2019-04-20T03:02:38.114Z,0
2019-04-20T03:03:50.146Z,0
2019-04-20T03:04:45.716Z,0
2019-04-20T03:06:22.664Z,0
2019-04-20T03:08:13.469Z,0
2019-04-20T03:10:33.719Z,0
2019-04-20T03:14:58.261Z,0
2019-04-20T03:17:20.119Z,0
2019-04-20T03:21:10.947Z,4
2019-04-20T03:24:18.656Z,4
2019-04-20T03:26:54.210Z,4
2019-04-20T03:28:49.868Z,4
2019-04-20T03:31:40.772Z,8
2019-04-20T03:35:22.016Z,16
2019-04-20T03:38:14.079Z,28
2019-04-20T03:40:12.421Z,36
2019-04-20T03:41:36.574Z,48
2019-04-20T03:42:18.256Z,52
2019-04-20T03:42:57.289Z,56
2019-04-20T03:44:18.179Z,64
2019-04-20T03:45:22.756Z,76
2019-04-20T03:46:22.189Z,88
2019-04-20T03:47:35.792Z,100
2019-04-20T03:49:25.379Z,128
2019-04-20T03:51:52.892Z,164
2019-04-20T03:53:58.575Z,212
2019-04-20T03:55:39.272Z,252
2019-04-20T03:57:45.478Z,308
2019-04-20T03:59:48.320Z,368
2019-04-20T04:02:37.331Z,456
2019-04-20T04:06:33.933Z,632
2019-04-20T04:07:30.256Z,672
2019-04-20T04:08:44.167Z,732
2019-04-20T04:10:20.506Z,812
2019-04-20T04:12:12.070Z,916
2019-04-20T04:12:52.996Z,968
2019-04-20T04:13:40.118Z,1020
2019-04-20T04:14:38.710Z,1084
2019-04-20T04:16:06.600Z,1176
2019-04-20T04:17:02.580Z,1240
2019-04-20T04:17:53.037Z,1300
2019-04-20T04:19:17.966Z,1400
2019-04-20T04:20:10.053Z,1476
2019-04-20T04:21:08.838Z,1572
2019-04-20T04:22:48.859Z,1716
2019-04-20T04:24:25.908Z,1884
2019-04-20T04:26:12.205Z,2048
2019-04-20T04:28:01.179Z,2208
2019-04-20T04:30:09.370Z,2424
2019-04-20T04:32:11.832Z,2676
2019-04-20T04:35:01.442Z,3136
2019-04-20T04:36:40.233Z,3220
2019-04-20T04:39:02.426Z,3612
2019-04-20T04:41:35.990Z,4252
2019-04-20T04:43:58.622Z,6316
2019-04-20T04:45:09.432Z,7052
2019-04-20T04:45:40.489Z,7640
2019-04-20T04:47:04.510Z,13056
2019-04-20T04:47:28.382Z,14144
2019-04-20T04:48:50.859Z,15328
2019-04-20T04:49:55.089Z,20480
2019-04-20T04:50:56.018Z,25280
2019-04-20T04:52:05.312Z,27616
2019-04-20T04:53:09.768Z,28960
2019-04-20T04:54:25.764Z,30112
2019-04-20T04:55:40.106Z,29984
2019-04-20T04:56:26.743Z,30272
2019-04-20T04:57:20.132Z,31232
2019-04-20T04:58:06.734Z,32448
2019-04-20T04:59:19.704Z,33728
2019-04-20T05:00:32.972Z,35360
2019-04-20T05:01:30.542Z,36608
2019-04-20T05:02:08.021Z,37344
2019-04-20T05:04:19.926Z,39008
2019-04-20T05:06:29.790Z,43488
2019-04-20T05:09:00.682Z,43008
2019-04-20T05:09:36.217Z,43808
2019-04-20T05:10:34.628Z,45184
2019-04-20T05:11:38.535Z,44672
2019-04-20T05:12:43.996Z,45824
2019-04-20T05:14:14.930Z,44768
2019-04-20T05:15:32.047Z,47328
2019-04-20T05:17:11.029Z,42208
2019-04-20T05:19:36.341Z,43168
2019-04-20T05:21:53.407Z,48032
2019-04-20T05:23:47.476Z,43072
2019-04-20T05:25:51.833Z,50496
2019-04-20T05:28:09.267Z,51296
2019-04-20T05:29:23.764Z,51584
2019-04-20T05:31:09.662Z,53824
2019-04-20T05:32:16.053Z,54560
2019-04-20T05:33:27.426Z,51840
2019-04-20T05:35:48.463Z,53024
2019-04-20T05:38:06.243Z,56032
2019-04-20T05:40:32.397Z,55936
2019-04-20T05:42:23.007Z,56352
2019-04-20T05:44:29.365Z,58720
2019-04-20T05:46:26.063Z,57376
2019-04-20T05:50:12.919Z,61408
2019-04-20T05:52:28.755Z,61664
2019-04-20T05:55:02.149Z,64288
2019-04-20T05:57:34.728Z,62176
2019-04-20T05:59:55.560Z,62592
2019-04-20T06:02:15.511Z,60448
2019-04-20T06:04:20.841Z,62400
2019-04-20T06:06:59.442Z,63584
2019-04-20T06:09:59.274Z,59648
2019-04-20T06:12:31.347Z,64800
2019-04-20T06:14:09.931Z,61920
2019-04-20T06:16:03.345Z,64128
2019-04-20T06:18:16.170Z,64416
2019-04-20T06:21:02.034Z,63776
2019-04-20T06:23:50.513Z,53856
2019-04-20T06:26:59.119Z,59200
2019-04-20T06:29:04.145Z,73600
2019-04-20T06:31:01.359Z,73792
2019-04-20T06:33:51.815Z,74016
2019-04-20T06:36:31.998Z,75232
2019-04-20T06:42:27.517Z,77312
2019-04-20T06:45:26.587Z,75456
2019-04-20T06:48:13.381Z,73792
2019-04-20T06:50:43.843Z,79840
2019-04-20T06:54:57.595Z,73280
2019-04-20T06:57:17.003Z,80352
2019-04-20T07:00:22.650Z,74336
2019-04-20T07:03:04.346Z,76864
2019-04-20T07:06:05.931Z,76320
2019-04-20T07:11:33.888Z,75872
2019-04-20T07:13:21.662Z,74464
2019-04-20T07:14:36.468Z,73696
2019-04-20T07:16:27.830Z,72224
2019-04-20T07:18:49.490Z,74432
2019-04-20T07:21:20.668Z,71904
2019-04-20T07:27:11.958Z,72448
2019-04-20T07:29:40.393Z,70016
2019-04-20T07:31:57.074Z,69664
2019-04-20T07:34:25.961Z,67968
2019-04-20T07:36:32.097Z,65280
2019-04-20T07:39:47.625Z,67200
2019-04-20T07:42:07.859Z,63616
2019-04-20T07:44:48.490Z,64608
2019-04-20T07:47:13.353Z,63104
2019-04-20T07:49:34.215Z,58816
2019-04-20T07:51:06.293Z,58784
2019-04-20T07:51:49.044Z,57440
2019-04-20T07:53:32.894Z,65504
2019-04-20T07:58:10.673Z,61952
2019-04-20T07:59:29.879Z,61344
2019-04-20T08:02:07.626Z,60768
2019-04-20T08:04:32.226Z,57984
2019-04-20T08:06:04.988Z,62496
2019-04-20T08:07:03.487Z,60288
2019-04-20T08:08:37.261Z,59136
2019-04-20T08:09:57.227Z,57056
2019-04-20T08:11:37.793Z,63168
2019-04-20T08:14:05.530Z,58336
2019-04-20T08:17:08.956Z,57632
2019-04-20T08:19:27.093Z,56896
2019-04-20T08:21:40.295Z,56544
2019-04-20T08:24:00.814Z,51936
2019-04-20T08:25:35.720Z,51232
2019-04-20T08:26:41.979Z,52448
2019-04-20T08:27:19.761Z,51744
2019-04-20T08:28:22.591Z,51360
2019-04-20T08:29:57.068Z,50720
2019-04-20T08:31:52.824Z,50272
2019-04-20T08:34:06.100Z,48576
2019-04-20T08:36:32.969Z,46912
2019-04-20T08:39:36.982Z,46464
2019-04-20T08:41:49.916Z,47488
2019-04-20T08:45:06.933Z,41760
2019-04-20T08:48:17.179Z,38400
2019-04-20T08:50:50.319Z,25088
2019-04-20T08:53:51.613Z,20256
2019-04-20T08:55:37.058Z,21152
2019-04-20T08:56:53.566Z,21472
2019-04-20T08:57:13.663Z,21920
2019-04-20T08:58:11.832Z,21824
2019-04-20T08:59:12.044Z,22592
2019-04-20T09:00:18.076Z,23008
2019-04-20T09:02:24.064Z,22880
2019-04-20T09:03:54.330Z,23104
2019-04-20T09:05:00.943Z,23168
2019-04-20T09:06:22.111Z,23488
2019-04-20T09:07:28.759Z,23392
2019-04-20T09:08:33.741Z,23584
2019-04-20T09:12:38.931Z,22880
2019-04-20T09:13:53.511Z,22880
2019-04-20T09:14:16.541Z,22976
2019-04-20T09:15:13.128Z,23328
2019-04-20T09:16:13.025Z,22848
2019-04-20T09:17:47.110Z,23040
2019-04-20T09:18:55.419Z,22752
2019-04-20T09:19:55.626Z,22080
2019-04-20T09:21:10.819Z,22016
2019-04-20T09:22:33.903Z,20352
2019-04-20T09:24:26.615Z,19520
2019-04-20T09:26:54.098Z,20352
2019-04-20T09:28:07.001Z,19936
2019-04-20T09:29:29.216Z,20288
2019-04-20T09:31:11.756Z,19232
2019-04-20T09:32:53.888Z,18464
2019-04-20T09:35:13.200Z,18400
2019-04-20T09:37:09.346Z,18816
2019-04-20T09:38:59.569Z,18784
2019-04-20T09:40:44.728Z,19136
2019-04-20T09:42:04.825Z,18560
2019-04-20T09:43:23.762Z,18272
2019-04-20T09:44:18.315Z,17920
2019-04-20T09:45:47.955Z,17344
2019-04-20T09:46:20.284Z,17792
2019-04-20T09:47:46.767Z,17632
2019-04-20T09:48:56.035Z,17856
2019-04-20T09:52:10.800Z,18784
2019-04-20T09:53:46.202Z,18528
2019-04-20T09:55:24.092Z,17984
2019-04-20T09:57:29.346Z,17280
2019-04-20T09:59:07.885Z,15636
2019-04-20T10:02:07.618Z,16408
2019-04-20T10:02:42.804Z,16020
2019-04-20T10:03:31.012Z,15532
2019-04-20T10:04:44.582Z,15384
2019-04-20T10:05:43.469Z,15296
2019-04-20T10:06:41.335Z,15244
2019-04-20T10:07:42.547Z,15372
2019-04-20T10:08:29.320Z,15420
2019-04-20T10:09:48.960Z,15244
2019-04-20T10:10:51.115Z,15312
2019-04-20T10:11:30.239Z,15332
2019-04-20T10:12:31.821Z,15456
2019-04-20T10:13:30.155Z,15392
2019-04-20T10:14:31.223Z,15256
2019-04-20T10:15:35.961Z,15104
2019-04-20T10:16:29.471Z,15040
2019-04-20T10:17:49.871Z,15032
2019-04-20T10:18:33.971Z,14932
2019-04-20T10:19:45.124Z,15000
2019-04-20T10:20:47.795Z,15064
2019-04-20T10:21:46.080Z,15144
2019-04-20T10:22:31.056Z,15212
2019-04-20T10:23:30.281Z,15208
2019-04-20T10:24:30.886Z,15196
2019-04-20T10:25:31.039Z,15148
2019-04-20T10:26:30.240Z,15124
2019-04-20T10:27:30.830Z,15064
2019-04-20T10:28:32.065Z,14968
2019-04-20T10:29:31.279Z,14732
2019-04-20T10:30:32.449Z,14708
2019-04-20T10:31:50.373Z,14776
2019-04-20T10:32:57.419Z,14856
2019-04-20T10:33:31.317Z,14860
2019-04-20T10:34:46.400Z,14460
2019-04-20T10:35:31.696Z,14164
2019-04-20T10:36:45.765Z,13728
2019-04-20T10:37:33.303Z,13524
2019-04-20T10:38:46.455Z,13172
2019-04-20T10:39:31.111Z,12820
2019-04-20T10:41:21.943Z,12332
2019-04-20T10:42:07.979Z,12728
2019-04-20T10:42:53.235Z,12808
2019-04-20T10:43:53.437Z,12660
2019-04-20T10:45:08.730Z,12368
2019-04-20T10:45:54.764Z,12496
2019-04-20T10:47:07.460Z,12504
2019-04-20T10:47:53.133Z,12312
2019-04-20T10:49:07.767Z,12216
2019-04-20T10:49:53.550Z,12136
2019-04-20T10:51:08.391Z,12740
2019-04-20T10:51:53.560Z,13220
2019-04-20T10:52:54.340Z,13508
2019-04-20T10:53:54.089Z,13548
2019-04-20T10:54:52.885Z,13572
2019-04-20T10:55:53.852Z,13460
2019-04-20T10:56:55.396Z,13304
2019-04-20T10:57:55.477Z,13124
2019-04-20T10:59:52.660Z,12680
2019-04-20T11:00:55.914Z,12384
2019-04-20T11:01:54.254Z,12108
2019-04-20T11:02:57.864Z,11784
2019-04-20T11:03:56.436Z,11268
2019-04-20T11:05:08.967Z,10668
2019-04-20T11:06:08.860Z,10460
2019-04-20T11:06:56.514Z,9544
2019-04-20T11:07:55.010Z,9308
2019-04-20T11:08:56.272Z,8988
2019-04-20T11:10:25.652Z,8524
2019-04-20T11:11:28.346Z,8616
2019-04-20T11:11:56.808Z,8704
2019-04-20T11:12:57.007Z,8760
2019-04-20T11:13:59.770Z,8468
2019-04-20T11:14:56.350Z,8308
2019-04-20T11:15:57.018Z,8016
2019-04-20T11:16:56.570Z,8148
2019-04-20T11:17:55.606Z,8188
2019-04-20T11:19:09.470Z,7960
2019-04-20T11:20:10.199Z,7880
2019-04-20T11:20:55.833Z,7800
2019-04-20T11:21:56.808Z,7696
2019-04-20T11:22:55.994Z,7500
2019-04-20T11:23:56.145Z,7528
2019-04-20T11:24:56.667Z,7452
2019-04-20T11:25:55.974Z,7364
2019-04-20T11:26:54.661Z,7368
2019-04-20T11:27:56.668Z,7372
2019-04-20T11:28:55.842Z,7288
2019-04-20T11:29:55.980Z,7228
2019-04-20T11:30:56.555Z,7172
2019-04-20T11:32:03.095Z,7092
2019-04-20T11:32:57.980Z,6976
2019-04-20T11:33:56.558Z,7008
2019-04-20T11:36:09.999Z,6976
2019-04-20T11:36:57.422Z,7100
2019-04-20T11:38:56.906Z,6964
2019-04-20T11:39:56.750Z,6868
2019-04-20T11:41:29.406Z,7104
2019-04-20T11:41:56.461Z,7064
2019-04-20T11:42:55.824Z,7112
2019-04-20T11:43:57.818Z,7080
2019-04-20T11:44:57.237Z,7180
2019-04-20T11:45:56.944Z,7224
2019-04-20T11:46:56.876Z,7236
2019-04-20T11:47:58.094Z,7260
2019-04-20T11:49:11.234Z,7268
2019-04-20T11:49:57.846Z,7296
2019-04-20T11:51:11.943Z,7300
2019-04-20T11:52:59.926Z,7292
2019-04-20T11:53:56.309Z,7260
2019-04-20T11:54:58.090Z,7272
2019-04-20T11:55:58.356Z,7280
2019-04-20T11:56:57.859Z,7288
2019-04-20T11:57:56.627Z,7248
2019-04-20T11:59:12.588Z,7180
2019-04-20T11:59:57.071Z,7160
2019-04-20T12:01:22.383Z,7064
2019-04-20T12:02:14.630Z,7016
2019-04-20T12:03:24.621Z,6996
2019-04-20T12:04:47.039Z,6884
2019-04-20T12:05:53.606Z,6872
2019-04-20T12:06:33.248Z,6856
2019-04-20T12:07:38.148Z,6804
2019-04-20T12:08:35.829Z,6748
2019-04-20T12:09:19.498Z,6700
2019-04-20T12:10:33.033Z,6600
2019-04-20T12:12:13.902Z,6408
2019-04-20T12:12:59.489Z,6384
2019-04-20T12:13:47.221Z,6228
2019-04-20T12:14:46.397Z,6392
2019-04-20T12:15:47.527Z,6316
2019-04-20T12:16:48.211Z,6368
2019-04-20T12:18:01.863Z,6428
2019-04-20T12:18:48.239Z,6400
2019-04-20T12:19:48.310Z,6432
2019-04-20T12:20:47.628Z,6416
2019-04-20T12:22:01.677Z,6444
2019-04-20T12:23:02.639Z,6448
2019-04-20T12:23:48.863Z,6456
2019-04-20T12:24:47.857Z,6464
2019-04-20T12:25:50.539Z,6488
2019-04-20T12:26:48.812Z,6532
2019-04-20T12:28:05.307Z,6556
2019-04-20T12:28:49.433Z,6568
2019-04-20T12:31:17.692Z,6596
2019-04-20T12:32:02.157Z,6616
2019-04-20T12:33:05.735Z,6628
2019-04-20T12:34:02.176Z,6640
2019-04-20T12:35:47.988Z,6636
2019-04-20T12:36:48.797Z,6644
2019-04-20T12:38:03.068Z,6636
2019-04-20T12:39:49.080Z,6636
2019-04-20T12:40:48.531Z,6620
2019-04-20T12:42:07.950Z,6628
2019-04-20T12:42:49.084Z,6620
2019-04-20T12:44:01.975Z,6448
2019-04-20T12:44:48.241Z,6344
2019-04-20T12:45:47.676Z,6204
2019-04-20T12:46:48.198Z,5936
2019-04-20T12:47:51.134Z,5664
2019-04-20T12:48:47.394Z,5320
2019-04-20T12:50:01.805Z,5404
2019-04-20T12:50:48.056Z,5428
2019-04-20T12:52:12.327Z,5452
2019-04-20T12:54:03.017Z,5416
2019-04-20T12:54:52.883Z,5268
2019-04-20T12:55:50.332Z,5840
2019-04-20T12:57:50.284Z,5936
2019-04-20T12:58:51.899Z,5880
2019-04-20T12:59:54.726Z,5668
2019-04-20T13:00:49.586Z,5780
2019-04-20T13:01:49.547Z,5704
2019-04-20T13:02:49.693Z,5680
2019-04-20T13:03:48.247Z,5640
2019-04-20T13:05:03.567Z,5828
2019-04-20T13:05:49.854Z,5956
2019-04-20T13:06:52.268Z,5896
2019-04-20T13:08:04.530Z,5820
2019-04-20T13:09:04.302Z,5760
2019-04-20T13:09:49.052Z,5880
2019-04-20T13:10:48.635Z,5556
2019-04-20T13:12:12.208Z,5708
2019-04-20T13:12:50.215Z,5704
2019-04-20T13:13:50.092Z,5780
2019-04-20T13:14:48.851Z,5964
2019-04-20T13:15:50.110Z,5984
2019-04-20T13:16:53.446Z,6168
2019-04-20T13:17:52.145Z,6256
2019-04-20T13:18:50.890Z,6332
2019-04-20T13:20:05.790Z,6336
2019-04-20T13:20:52.987Z,6344
2019-04-20T13:21:49.577Z,6376
2019-04-20T13:22:49.132Z,6344
2019-04-20T13:24:49.640Z,6240
2019-04-20T13:25:49.053Z,6296
2019-04-20T13:26:49.232Z,6244
2019-04-20T13:27:50.439Z,6232
2019-04-20T13:29:04.636Z,6300
2019-04-20T13:29:55.872Z,6316
2019-04-20T13:30:50.496Z,6320
2019-04-20T13:31:55.264Z,6296
2019-04-20T13:33:03.845Z,6248
2019-04-20T13:34:49.930Z,5800
2019-04-20T13:35:50.103Z,5396
2019-04-20T13:37:04.151Z,5300
2019-04-20T13:37:52.431Z,5604
2019-04-20T13:38:50.329Z,6044
2019-04-20T13:39:49.274Z,6188
2019-04-20T13:40:51.447Z,6196
2019-04-20T13:42:21.085Z,6176
2019-04-20T13:42:50.010Z,6132
2019-04-20T13:43:50.410Z,6160
2019-04-20T13:44:48.736Z,6196
2019-04-20T13:46:03.215Z,6192
2019-04-20T13:46:49.433Z,6184
2019-04-20T13:48:04.385Z,6168
2019-04-20T13:48:50.946Z,6168
2019-04-20T13:49:49.452Z,6172
2019-04-20T13:50:49.737Z,6152
2019-04-20T13:51:50.507Z,6140
2019-04-20T13:53:03.651Z,6116
2019-04-20T13:53:51.000Z,6108
2019-04-20T13:55:04.724Z,6100
2019-04-20T13:55:48.642Z,6104
2019-04-20T13:56:50.397Z,6092
2019-04-20T13:57:49.595Z,6044
2019-04-20T13:59:03.741Z,6040
2019-04-20T13:59:50.466Z,6044
2019-04-20T14:01:05.104Z,6040
2019-04-20T14:01:50.434Z,6064
2019-04-20T14:02:50.975Z,6064
2019-04-20T14:03:50.281Z,6064
2019-04-20T14:05:04.630Z,6060
2019-04-20T14:05:51.155Z,6052
2019-04-20T14:06:51.150Z,6036
2019-04-20T14:07:51.089Z,6032
2019-04-20T14:09:03.874Z,6020
2019-04-20T14:09:51.122Z,6016
2019-04-20T14:10:51.245Z,6020
2019-04-20T14:11:51.627Z,6024
2019-04-20T14:13:35.159Z,6028
2019-04-20T14:14:57.160Z,6036
2019-04-20T14:15:55.925Z,6016
2019-04-20T14:16:55.409Z,6012
2019-04-20T14:19:56.818Z,5996
2019-04-20T14:21:10.438Z,6012
2019-04-20T14:21:56.606Z,6000
2019-04-20T14:22:57.176Z,5992
2019-04-20T14:23:57.051Z,5992
2019-04-20T14:24:57.491Z,5996
2019-04-20T14:25:57.076Z,5980
2019-04-20T14:27:10.556Z,5968
2019-04-20T14:28:11.311Z,5964
2019-04-20T14:28:57.183Z,5964
2019-04-20T14:29:57.071Z,5952
2019-04-20T14:32:12.637Z,5948
2019-04-20T14:32:56.512Z,5924
2019-04-20T14:33:57.225Z,5904
2019-04-20T14:34:56.779Z,5908
2019-04-20T14:35:56.871Z,5896
2019-04-20T14:36:57.434Z,5880
2019-04-20T14:37:57.543Z,5888
2019-04-20T14:39:12.501Z,5880
2019-04-20T14:39:56.787Z,5876
2019-04-20T14:40:58.120Z,5860
2019-04-20T14:41:58.136Z,5856
2019-04-20T14:43:11.223Z,5836
2019-04-20T14:43:57.631Z,5820
2019-04-20T14:44:55.490Z,5812
2019-04-20T14:45:56.601Z,5816
2019-04-20T14:46:58.236Z,5808
2019-04-20T14:47:57.457Z,5796
2019-04-20T14:48:58.742Z,5804
2019-04-20T14:49:59.521Z,5796
2019-04-20T14:50:59.339Z,5780
2019-04-20T14:52:11.359Z,5768
2019-04-20T14:52:58.011Z,5752
2019-04-20T14:53:59.161Z,5740
2019-04-20T14:54:57.998Z,5736
2019-04-20T14:55:57.931Z,5740
2019-04-20T14:57:12.079Z,5732
2019-04-20T14:58:11.207Z,5712
2019-04-20T14:58:57.882Z,5712
2019-04-20T14:59:59.129Z,5708
2019-04-20T15:01:02.568Z,5700
2019-04-20T15:01:57.001Z,5696
2019-04-20T15:02:58.314Z,5696
2019-04-20T15:04:21.848Z,5692
2019-04-20T15:04:57.368Z,5688
2019-04-20T15:05:55.963Z,5680
2019-04-20T15:06:57.193Z,5664
2019-04-20T15:07:56.843Z,5656
2019-04-20T15:09:12.731Z,5656
2019-04-20T15:09:57.459Z,5636
2019-04-20T15:10:57.014Z,5636
2019-04-20T15:11:57.208Z,5616
2019-04-20T15:13:22.818Z,5600
2019-04-20T15:13:56.412Z,5596
2019-04-20T15:14:58.953Z,5580
2019-04-20T15:15:58.908Z,5576
2019-04-20T15:16:56.324Z,5572
2019-04-20T15:17:57.504Z,5556
2019-04-20T15:19:00.563Z,5552
2019-04-20T15:19:57.189Z,5552
2019-04-20T15:20:57.352Z,5556
2019-04-20T15:22:11.882Z,5520
2019-04-20T15:22:59.573Z,5456
2019-04-20T15:23:57.421Z,5508
2019-04-20T15:25:11.681Z,5500
2019-04-20T15:25:58.190Z,5496
2019-04-20T15:27:58.638Z,5488
2019-04-20T15:28:59.970Z,5496
2019-04-20T15:30:12.062Z,5488
2019-04-20T15:30:58.571Z,5484
2019-04-20T15:31:59.777Z,5472
2019-04-20T15:33:12.680Z,5448
2019-04-20T15:33:59.384Z,5440
2019-04-20T15:34:57.731Z,5444
2019-04-20T15:35:58.249Z,5432
2019-04-20T15:36:58.311Z,5420
2019-04-20T15:37:59.393Z,5396
2019-04-20T15:39:11.820Z,5388
2019-04-20T15:39:58.960Z,5384
2019-04-20T15:40:59.358Z,5384
2019-04-20T15:41:57.053Z,5376
2019-04-20T15:43:26.195Z,5348
2019-04-20T15:43:57.914Z,5340
2019-04-20T15:44:58.229Z,5324
2019-04-20T15:46:13.025Z,5316
2019-04-20T15:46:59.702Z,5308
2019-04-20T15:47:59.498Z,5296
2019-04-20T15:48:58.265Z,5284
2019-04-20T15:49:59.847Z,5256
2019-04-20T15:51:12.372Z,5236
2019-04-20T15:51:58.085Z,5220
2019-04-20T15:53:05.878Z,5204
2019-04-20T15:53:59.672Z,5204
2019-04-20T15:55:01.589Z,5196
2019-04-20T15:56:05.943Z,5184
2019-04-20T15:57:24.983Z,5152
2019-04-20T15:57:59.870Z,5144
2019-04-20T15:58:59.006Z,5132
2019-04-20T15:59:58.593Z,5108
2019-04-20T16:01:02.339Z,5092
2019-04-20T16:02:13.444Z,5064
2019-04-20T16:03:59.609Z,5012
2019-04-20T16:05:00.512Z,4988
2019-04-20T16:05:59.092Z,4980
2019-04-20T16:06:58.830Z,4948
2019-04-20T16:08:10.612Z,4928
2019-04-20T16:08:59.993Z,4912
2019-04-20T16:10:01.022Z,4892
2019-04-20T16:10:59.241Z,4872
2019-04-20T16:11:59.451Z,4840
2019-04-20T16:13:38.420Z,4812
2019-04-20T16:14:17.637Z,4800
2019-04-20T16:15:00.030Z,4784
2019-04-20T16:16:01.477Z,4764
2019-04-20T16:16:58.701Z,4744
2019-04-20T16:18:12.666Z,4708
2019-04-20T16:19:03.854Z,4692
2019-04-20T16:20:23.873Z,4656
2019-04-20T16:21:31.966Z,4636
2019-04-20T16:21:59.920Z,4628
2019-04-20T16:23:00.899Z,4612
2019-04-20T16:24:01.298Z,4596
2019-04-20T16:24:59.213Z,4580
2019-04-20T16:25:59.531Z,4552
2019-04-20T16:27:15.640Z,4528
2019-04-20T16:27:59.346Z,4508
2019-04-20T16:28:59.959Z,4484
2019-04-20T16:30:00.078Z,4456
2019-04-20T16:30:59.348Z,4428
2019-04-20T16:32:14.353Z,4400
2019-04-20T16:33:01.077Z,4380
2019-04-20T16:34:03.603Z,4356
2019-04-20T16:35:02.607Z,4324
2019-04-20T16:36:00.824Z,4292
2019-04-20T16:37:17.195Z,4268
2019-04-20T16:38:02.440Z,4248
2019-04-20T16:39:16.388Z,4220
2019-04-20T16:40:02.775Z,4188
2019-04-20T16:41:00.015Z,4160
2019-04-20T16:42:14.062Z,4120
2019-04-20T16:43:42.951Z,4052
2019-04-20T16:45:13.297Z,4020
2019-04-20T16:46:01.256Z,4004
2019-04-20T16:47:00.680Z,3976
2019-04-20T16:48:03.678Z,3944
2019-04-20T16:49:01.303Z,3920
2019-04-20T16:50:01.146Z,3888
2019-04-20T16:51:01.040Z,3856
2019-04-20T16:52:01.201Z,3828
2019-04-20T16:53:01.025Z,3796
2019-04-20T16:53:59.490Z,3768
2019-04-20T16:55:00.055Z,3724
2019-04-20T16:56:01.316Z,3668
2019-04-20T16:57:00.483Z,3620
2019-04-20T16:58:01.619Z,3580
2019-04-20T16:59:21.179Z,3532
2019-04-20T17:00:59.432Z,3456
2019-04-20T17:02:00.338Z,3408
2019-04-20T17:03:00.920Z,3368
2019-04-20T17:04:27.979Z,3316
2019-04-20T17:05:03.300Z,3292
2019-04-20T17:06:00.335Z,3244
2019-04-20T17:07:00.547Z,3196
2019-04-20T17:08:00.653Z,3160
2019-04-20T17:09:00.902Z,3104
2019-04-20T17:10:02.175Z,3044
2019-04-20T17:11:01.520Z,2988
2019-04-20T17:11:59.873Z,2928
2019-04-20T17:13:02.296Z,2872
2019-04-20T17:14:06.701Z,2808
2019-04-20T17:15:15.824Z,2740
2019-04-20T17:16:00.034Z,2688
2019-04-20T17:18:03.981Z,2520
2019-04-20T17:19:01.606Z,2432
2019-04-20T17:20:02.084Z,2340
2019-04-20T17:21:16.451Z,2220
2019-04-20T17:22:03.428Z,2124
2019-04-20T17:23:03.650Z,2024
2019-04-20T17:24:01.855Z,1936
2019-04-20T17:25:16.689Z,1860
2019-04-20T17:26:01.929Z,1828
2019-04-20T17:27:01.552Z,1788
2019-04-20T17:28:02.578Z,1752
2019-04-20T17:29:04.188Z,1712
2019-04-20T17:30:21.869Z,1664
2019-04-20T17:31:02.986Z,1640
2019-04-20T17:32:01.264Z,1604
2019-04-20T17:35:01.629Z,1504
2019-04-20T17:36:17.123Z,1452
2019-04-20T17:36:44.726Z,1432
2019-04-20T17:37:53.445Z,1392
2019-04-20T17:39:00.082Z,1356
2019-04-20T17:40:50.943Z,1296
2019-04-20T17:43:57.480Z,1184
2019-04-20T17:45:28.129Z,1124
2019-04-20T17:48:32.155Z,1000
2019-04-20T17:50:23.905Z,932
2019-04-20T17:52:53.661Z,828
2019-04-20T17:54:07.432Z,772
2019-04-20T17:54:51.926Z,744
2019-04-20T17:55:53.410Z,708
2019-04-20T17:56:36.406Z,684
2019-04-20T17:57:37.560Z,644
2019-04-20T17:58:44.124Z,608
2019-04-20T17:59:38.078Z,576
2019-04-20T18:00:57.761Z,532
2019-04-20T18:02:44.180Z,484
2019-04-20T18:08:53.450Z,304
2019-04-20T18:10:58.069Z,248
2019-04-20T18:11:52.392Z,228
2019-04-20T18:12:57.517Z,204
2019-04-20T18:13:58.754Z,184
2019-04-20T18:15:56.033Z,152
2019-04-20T18:18:10.125Z,116
2019-04-20T18:19:22.673Z,96
2019-04-20T18:19:49.443Z,88
2019-04-20T18:20:48.491Z,76
2019-04-20T18:21:51.657Z,68
2019-04-20T18:23:02.464Z,60